createdAt,value
2022-12-11T00:01:31.263Z,77.18
2022-12-11T00:06:40.881Z,77.41
2022-12-11T00:11:50.891Z,77.33
2022-12-11T00:17:00.474Z,77.47
2022-12-11T00:22:09.915Z,77.36
2022-12-11T00:27:19.449Z,77.46
2022-12-11T00:32:32.573Z,77.38
2022-12-11T00:37:44.458Z,77.34
2022-12-11T00:42:53.965Z,77.43
2022-12-11T00:48:03.280Z,77.75
2022-12-11T00:53:13.071Z,77.87
2022-12-11T00:58:22.845Z,77.91
2022-12-11T01:03:32.474Z,77.62
2022-12-11T01:08:41.828Z,77.67
2022-12-11T01:13:51.468Z,77.68
2022-12-11T01:19:02.072Z,77.74
2022-12-11T01:24:12.146Z,77.76
2022-12-11T01:29:21.886Z,77.96
2022-12-11T01:34:34.821Z,78.29
2022-12-11T01:39:44.589Z,78.64
2022-12-11T01:45:32.376Z,78.63
2022-12-11T01:50:49.275Z,78.51
2022-12-11T01:56:02.249Z,78.56
2022-12-11T02:01:13.694Z,78.68
2022-12-11T02:06:42.675Z,78.88
2022-12-11T02:12:08.856Z,79.03
2022-12-11T02:17:27.646Z,78.95
2022-12-11T02:23:19.394Z,78.98
2022-12-11T02:28:35.153Z,79.38
2022-12-11T02:33:52.507Z,79.59
2022-12-11T02:39:05.542Z,79.46
2022-12-11T02:44:19.128Z,79.53
2022-12-11T02:49:30.367Z,79.64
2022-12-11T02:54:45.212Z,79.78
2022-12-11T02:59:55.076Z,80.06
2022-12-11T03:05:05.043Z,80.17
2022-12-11T03:10:20.084Z,80.14
2022-12-11T03:15:41.009Z,80.29
2022-12-11T03:21:04.643Z,80.22
2022-12-11T03:26:18.447Z,80.21
2022-12-11T03:31:47.135Z,80.03
2022-12-11T03:36:59.559Z,80.11
2022-12-11T03:42:14.620Z,80.38
2022-12-11T03:47:28.554Z,80.65
2022-12-11T03:52:45.596Z,80.86
2022-12-11T03:57:55.814Z,80.89
2022-12-11T04:03:14.997Z,80.96
2022-12-11T04:08:26.454Z,81.08
2022-12-11T04:13:35.859Z,81.17
2022-12-11T04:19:02.789Z,81.30
2022-12-11T04:24:19.310Z,81.18
2022-12-11T04:29:28.896Z,81.14
2022-12-11T04:34:38.376Z,81.32
2022-12-11T04:39:48.140Z,81.38
2022-12-11T04:44:57.595Z,81.42
2022-12-11T04:50:09.590Z,81.39
2022-12-11T04:55:18.990Z,81.23
2022-12-11T05:00:28.691Z,81.30
2022-12-11T05:05:38.296Z,81.32
2022-12-11T05:10:56.217Z,81.30
2022-12-11T05:16:10.277Z,81.46
2022-12-11T05:21:20.082Z,81.36
2022-12-11T05:26:29.472Z,81.34
2022-12-11T05:31:38.903Z,81.36
2022-12-11T05:36:48.685Z,81.38
2022-12-11T05:41:58.184Z,81.31
2022-12-11T05:47:07.767Z,81.36
2022-12-11T05:52:17.497Z,81.56
2022-12-11T05:57:27.036Z,81.43
2022-12-11T06:02:37.909Z,81.53
2022-12-11T06:07:47.476Z,81.48
2022-12-11T06:12:56.987Z,81.32
2022-12-11T06:18:06.679Z,81.53
2022-12-11T06:23:16.157Z,81.60
2022-12-11T06:28:25.673Z,81.72
2022-12-11T06:33:35.513Z,81.81
2022-12-11T06:38:45.780Z,81.78
2022-12-11T06:43:55.223Z,81.88
2022-12-11T06:49:04.882Z,81.89
2022-12-11T06:54:14.455Z,81.95
2022-12-11T06:59:23.834Z,81.82
2022-12-11T07:04:33.421Z,81.66
2022-12-11T07:09:44.220Z,81.48
2022-12-11T07:14:53.775Z,81.51
2022-12-11T07:20:03.122Z,81.76
2022-12-11T07:25:13.915Z,81.90
2022-12-11T07:30:23.734Z,81.85
2022-12-11T07:35:33.172Z,81.54
2022-12-11T07:40:42.724Z,81.65
2022-12-11T07:45:52.251Z,81.75
2022-12-11T07:51:11.263Z,81.75
2022-12-11T07:56:21.714Z,81.60
2022-12-11T08:01:35.829Z,81.39
2022-12-11T08:06:46.002Z,81.14
2022-12-11T08:11:56.430Z,81.19
2022-12-11T08:17:06.348Z,81.01
2022-12-11T08:22:15.975Z,81.07
2022-12-11T08:27:27.011Z,81.18
2022-12-11T08:32:37.137Z,81.28
2022-12-11T08:37:46.569Z,81.51
2022-12-11T08:42:55.931Z,81.49
2022-12-11T08:48:05.739Z,81.42
2022-12-11T08:53:15.252Z,81.39
2022-12-11T08:58:24.768Z,81.43
2022-12-11T09:03:34.215Z,81.21
2022-12-11T09:08:50.374Z,81.03
2022-12-11T09:14:07.205Z,81.03
2022-12-11T09:19:18.954Z,80.71
2022-12-11T09:24:28.679Z,80.71
2022-12-11T09:29:39.654Z,80.80
2022-12-11T09:34:51.563Z,80.83
2022-12-11T09:40:07.111Z,80.81
2022-12-11T09:45:19.803Z,80.74
2022-12-11T09:50:33.337Z,80.93
2022-12-11T09:55:55.955Z,80.78
2022-12-11T10:01:15.827Z,80.93
2022-12-11T10:06:34.190Z,81.07
2022-12-11T10:12:05.595Z,81.17
2022-12-11T10:17:22.307Z,80.78
2022-12-11T10:22:34.988Z,80.96
2022-12-11T10:27:45.421Z,81.10
2022-12-11T10:33:21.535Z,81.04
2022-12-11T10:38:35.268Z,80.97
2022-12-11T10:43:47.519Z,81.10
2022-12-11T10:48:59.430Z,81.00
2022-12-11T10:54:29.384Z,80.83
2022-12-11T10:59:49.485Z,80.85
2022-12-11T11:05:01.911Z,80.60
2022-12-11T11:10:20.916Z,80.79
2022-12-11T11:15:33.089Z,80.88
2022-12-11T11:20:50.784Z,80.91
2022-12-11T11:26:03.699Z,81.01
2022-12-11T11:31:16.589Z,80.85
2022-12-11T11:36:30.348Z,80.70
2022-12-11T11:41:54.083Z,80.80
2022-12-11T11:47:12.863Z,80.66
2022-12-11T11:52:34.913Z,80.69
2022-12-11T11:57:51.944Z,80.71
2022-12-11T12:03:05.354Z,80.74
2022-12-11T12:08:24.709Z,80.70
2022-12-11T12:13:49.874Z,80.56
2022-12-11T12:19:15.329Z,80.40
2022-12-11T12:24:44.117Z,80.58
2022-12-11T12:30:06.105Z,80.71
2022-12-11T12:35:29.789Z,80.78
2022-12-11T12:40:51.751Z,80.54
2022-12-11T12:46:20.179Z,80.58
2022-12-11T12:51:31.883Z,80.78
2022-12-11T12:56:43.950Z,80.81
2022-12-11T13:01:58.833Z,80.58
2022-12-11T13:07:23.546Z,80.75
2022-12-11T13:12:47.383Z,80.65
2022-12-11T13:17:58.081Z,80.73
2022-12-11T13:23:31.440Z,81.07
2022-12-11T13:28:52.463Z,80.99
2022-12-11T13:34:15.338Z,81.04
2022-12-11T13:39:28.955Z,81.03
2022-12-11T13:44:43.375Z,81.14
2022-12-11T13:50:02.853Z,80.92
2022-12-11T13:55:26.763Z,80.89
2022-12-11T14:00:37.272Z,80.89
2022-12-11T14:05:46.914Z,80.96
2022-12-11T14:10:59.228Z,80.93
2022-12-11T14:16:09.982Z,80.78
2022-12-11T14:21:26.539Z,80.93
2022-12-11T14:26:38.984Z,80.94
2022-12-11T14:31:49.843Z,80.85
2022-12-11T14:37:00.554Z,80.91
2022-12-11T14:42:16.391Z,80.86
2022-12-11T14:47:30.754Z,80.89
2022-12-11T14:52:44.762Z,80.94
2022-12-11T14:57:59.135Z,80.96
2022-12-11T15:03:22.896Z,81.03
2022-12-11T15:08:36.023Z,80.98
2022-12-11T15:13:57.174Z,81.19
2022-12-11T15:19:07.188Z,81.31
2022-12-11T15:24:30.540Z,81.32
2022-12-11T15:29:42.342Z,81.31
2022-12-11T15:34:55.156Z,81.37
2022-12-11T15:40:08.277Z,81.47
2022-12-11T15:45:22.963Z,81.54
2022-12-11T15:50:33.448Z,81.71
2022-12-11T15:55:44.281Z,81.81
2022-12-11T16:00:54.745Z,81.81
2022-12-11T16:06:04.459Z,82.24
2022-12-11T16:11:17.381Z,82.14
2022-12-11T16:16:26.880Z,81.89
2022-12-11T16:21:36.459Z,81.88
2022-12-11T16:26:45.783Z,81.95
2022-12-11T16:31:55.743Z,81.79
2022-12-11T16:37:06.448Z,81.69
2022-12-11T16:42:16.087Z,81.76
2022-12-11T16:47:25.891Z,82.11
2022-12-11T16:52:36.468Z,82.18
2022-12-11T16:57:46.063Z,81.99
2022-12-11T17:02:55.521Z,81.94
2022-12-11T17:08:05.379Z,82.04
2022-12-11T17:13:15.130Z,81.99
2022-12-11T17:18:24.588Z,81.94
2022-12-11T17:23:34.173Z,81.87
2022-12-11T17:28:44.011Z,81.79
2022-12-11T17:33:54.173Z,81.72
2022-12-11T17:39:03.731Z,81.78
2022-12-11T17:44:14.315Z,81.64
2022-12-11T17:49:23.815Z,81.60
2022-12-11T17:54:33.582Z,81.58
2022-12-11T17:59:43.436Z,81.59
2022-12-11T18:04:55.200Z,81.42
2022-12-11T18:10:04.906Z,81.42
2022-12-11T18:15:15.331Z,81.46
2022-12-11T18:20:25.475Z,81.57
2022-12-11T18:25:34.929Z,81.37
2022-12-11T18:30:44.471Z,81.38
2022-12-11T18:35:55.414Z,81.48
2022-12-11T18:41:07.879Z,81.70
2022-12-11T18:46:20.194Z,81.72
2022-12-11T18:51:30.497Z,81.68
2022-12-11T18:56:42.055Z,81.72
2022-12-11T19:01:51.428Z,81.58
2022-12-11T19:07:02.868Z,81.81
2022-12-11T19:12:12.983Z,81.88
2022-12-11T19:17:22.343Z,81.88
2022-12-11T19:22:31.928Z,81.94
2022-12-11T19:27:41.291Z,82.00
2022-12-11T19:32:51.357Z,81.93
2022-12-11T19:38:02.035Z,81.96
2022-12-11T19:43:11.818Z,82.14
2022-12-11T19:48:21.723Z,82.35
2022-12-11T19:53:31.448Z,82.49
2022-12-11T19:58:41.154Z,82.45
2022-12-11T20:03:50.806Z,82.46
2022-12-11T20:09:01.039Z,82.47
2022-12-11T20:14:10.935Z,82.48
2022-12-11T20:19:20.850Z,82.54
2022-12-11T20:24:30.643Z,82.65
2022-12-11T20:29:40.319Z,82.58
2022-12-11T20:34:49.694Z,82.63
2022-12-11T20:39:59.676Z,82.68
2022-12-11T20:45:11.910Z,82.80
2022-12-11T20:50:22.100Z,82.89
2022-12-11T20:55:31.530Z,82.93
2022-12-11T21:00:43.978Z,83.01
2022-12-11T21:05:53.284Z,83.21
2022-12-11T21:11:02.838Z,83.26
2022-12-11T21:16:14.296Z,83.54
2022-12-11T21:21:23.717Z,83.58
2022-12-11T21:26:33.234Z,83.75
2022-12-11T21:31:43.388Z,83.75
2022-12-11T21:36:57.142Z,83.91
2022-12-11T21:42:07.407Z,83.87
2022-12-11T21:47:17.116Z,84.07
2022-12-11T21:52:26.803Z,84.12
2022-12-11T21:57:36.423Z,84.19
2022-12-11T22:02:45.844Z,84.34
2022-12-11T22:07:55.676Z,84.42
2022-12-11T22:13:05.217Z,84.50
2022-12-11T22:18:14.888Z,84.57
2022-12-11T22:23:24.878Z,84.61
2022-12-11T22:28:34.509Z,84.68
2022-12-11T22:33:44.640Z,84.75
2022-12-11T22:38:54.256Z,84.94
2022-12-11T22:44:04.133Z,85.00
2022-12-11T22:49:14.157Z,85.06
2022-12-11T22:54:24.030Z,85.14
2022-12-11T22:59:33.532Z,85.15
2022-12-11T23:04:43.221Z,85.31
2022-12-11T23:09:52.871Z,85.56
2022-12-11T23:15:02.438Z,85.54
2022-12-11T23:20:14.250Z,85.61
2022-12-11T23:25:24.305Z,85.68
2022-12-11T23:30:33.973Z,85.75
2022-12-11T23:35:43.883Z,85.86
2022-12-11T23:40:53.875Z,85.83
2022-12-11T23:46:04.002Z,85.78
2022-12-11T23:51:16.678Z,85.75
2022-12-11T23:56:29.060Z,85.89
